sensor_id;sensor_type;location;lat;lon;timestamp;temperature;humidity
8002;DHT22;4046;48.774;8.732;2022-11-27T00:01:26;21.00;99.90
8002;DHT22;4046;48.774;8.732;2022-11-27T00:03:54;21.00;99.90
8002;DHT22;4046;48.774;8.732;2022-11-27T00:06:23;21.00;99.90
8002;DHT22;4046;48.774;8.732;2022-11-27T00:08:49;21.00;99.90
8002;DHT22;4046;48.774;8.732;2022-11-27T00:11:23;21.00;99.90
8002;DHT22;4046;48.774;8.732;2022-11-27T00:13:51;21.00;99.90
8002;DHT22;4046;48.774;8.732;2022-11-27T00:16:19;21.00;99.90
8002;DHT22;4046;48.774;8.732;2022-11-27T00:18:45;21.00;99.90
8002;DHT22;4046;48.774;8.732;2022-11-27T00:21:23;21.00;99.90
8002;DHT22;4046;48.774;8.732;2022-11-27T00:23:54;21.00;99.90
8002;DHT22;4046;48.774;8.732;2022-11-27T00:26:21;21.00;99.90
8002;DHT22;4046;48.774;8.732;2022-11-27T00:28:48;21.00;99.90
8002;DHT22;4046;48.774;8.732;2022-11-27T00:31:16;21.00;99.90
8002;DHT22;4046;48.774;8.732;2022-11-27T00:33:42;21.00;99.90
8002;DHT22;4046;48.774;8.732;2022-11-27T00:36:10;21.00;99.90
8002;DHT22;4046;48.774;8.732;2022-11-27T00:38:36;21.00;99.90
8002;DHT22;4046;48.774;8.732;2022-11-27T00:41:11;21.00;99.90
8002;DHT22;4046;48.774;8.732;2022-11-27T00:43:39;20.90;99.90
8002;DHT22;4046;48.774;8.732;2022-11-27T00:46:05;20.90;99.90
8002;DHT22;4046;48.774;8.732;2022-11-27T00:48:31;20.90;99.90
8002;DHT22;4046;48.774;8.732;2022-11-27T00:51:06;21.00;99.90
8002;DHT22;4046;48.774;8.732;2022-11-27T00:53:32;21.00;99.90
8002;DHT22;4046;48.774;8.732;2022-11-27T00:55:59;20.90;99.90
8002;DHT22;4046;48.774;8.732;2022-11-27T00:58:26;20.90;99.90
8002;DHT22;4046;48.774;8.732;2022-11-27T01:00:57;20.90;99.90
8002;DHT22;4046;48.774;8.732;2022-11-27T01:03:24;20.90;99.90
8002;DHT22;4046;48.774;8.732;2022-11-27T01:05:51;20.90;99.90
8002;DHT22;4046;48.774;8.732;2022-11-27T01:08:17;20.90;99.90
8002;DHT22;4046;48.774;8.732;2022-11-27T01:10:49;20.90;99.90
8002;DHT22;4046;48.774;8.732;2022-11-27T01:13:16;20.90;99.90
8002;DHT22;4046;48.774;8.732;2022-11-27T01:15:43;20.90;99.90
8002;DHT22;4046;48.774;8.732;2022-11-27T01:18:10;20.90;99.90
8002;DHT22;4046;48.774;8.732;2022-11-27T01:20:38;20.90;99.90
8002;DHT22;4046;48.774;8.732;2022-11-27T01:23:05;20.90;99.90
8002;DHT22;4046;48.774;8.732;2022-11-27T01:25:35;20.90;99.90
8002;DHT22;4046;48.774;8.732;2022-11-27T01:28:01;20.90;99.90
8002;DHT22;4046;48.774;8.732;2022-11-27T01:30:27;20.90;99.90
8002;DHT22;4046;48.774;8.732;2022-11-27T01:32:53;20.90;99.90
8002;DHT22;4046;48.774;8.732;2022-11-27T01:35:20;20.90;99.90
8002;DHT22;4046;48.774;8.732;2022-11-27T01:37:46;20.90;99.90
8002;DHT22;4046;48.774;8.732;2022-11-27T01:40:12;20.90;99.90
8002;DHT22;4046;48.774;8.732;2022-11-27T01:42:38;21.00;99.90
8002;DHT22;4046;48.774;8.732;2022-11-27T01:45:05;20.90;99.90
8002;DHT22;4046;48.774;8.732;2022-11-27T01:47:42;20.90;99.90
8002;DHT22;4046;48.774;8.732;2022-11-27T01:50:54;20.90;99.90
8002;DHT22;4046;48.774;8.732;2022-11-27T01:53:06;20.90;99.90
8002;DHT22;4046;48.774;8.732;2022-11-27T01:55:36;20.90;99.90
8002;DHT22;4046;48.774;8.732;2022-11-27T01:58:11;20.90;99.90
8002;DHT22;4046;48.774;8.732;2022-11-27T02:00:38;20.90;99.90
8002;DHT22;4046;48.774;8.732;2022-11-27T02:03:04;20.90;99.90
8002;DHT22;4046;48.774;8.732;2022-11-27T02:05:31;20.90;99.90
8002;DHT22;4046;48.774;8.732;2022-11-27T02:08:02;20.90;99.90
8002;DHT22;4046;48.774;8.732;2022-11-27T02:16:50;20.90;99.90
8002;DHT22;4046;48.774;8.732;2022-11-27T02:28:28;20.90;99.90
8002;DHT22;4046;48.774;8.732;2022-11-27T02:31:15;20.80;99.90
8002;DHT22;4046;48.774;8.732;2022-11-27T02:33:46;20.80;99.90
8002;DHT22;4046;48.774;8.732;2022-11-27T02:36:18;20.80;99.90
8002;DHT22;4046;48.774;8.732;2022-11-27T02:38:52;20.80;99.90
8002;DHT22;4046;48.774;8.732;2022-11-27T02:41:27;20.80;99.90
8002;DHT22;4046;48.774;8.732;2022-11-27T02:43:54;20.80;99.90
8002;DHT22;4046;48.774;8.732;2022-11-27T02:46:22;20.90;99.90
8002;DHT22;4046;48.774;8.732;2022-11-27T02:49:02;20.80;99.90
8002;DHT22;4046;48.774;8.732;2022-11-27T02:51:38;20.90;99.90
8002;DHT22;4046;48.774;8.732;2022-11-27T02:54:09;20.80;99.90
8002;DHT22;4046;48.774;8.732;2022-11-27T02:56:37;20.90;99.90
8002;DHT22;4046;48.774;8.732;2022-11-27T02:59:08;20.80;99.90
8002;DHT22;4046;48.774;8.732;2022-11-27T03:01:40;20.80;99.90
8002;DHT22;4046;48.774;8.732;2022-11-27T03:04:10;20.80;99.90
8002;DHT22;4046;48.774;8.732;2022-11-27T03:06:43;20.80;99.90
8002;DHT22;4046;48.774;8.732;2022-11-27T03:09:28;20.90;99.90
8002;DHT22;4046;48.774;8.732;2022-11-27T03:11:57;20.90;99.90
8002;DHT22;4046;48.774;8.732;2022-11-27T03:14:23;20.90;99.90
8002;DHT22;4046;48.774;8.732;2022-11-27T03:19:51;20.90;99.90
8002;DHT22;4046;48.774;8.732;2022-11-27T03:22:18;20.90;99.90
8002;DHT22;4046;48.774;8.732;2022-11-27T03:24:44;20.90;99.90
8002;DHT22;4046;48.774;8.732;2022-11-27T03:27:17;20.90;99.90
8002;DHT22;4046;48.774;8.732;2022-11-27T03:29:58;20.90;99.90
8002;DHT22;4046;48.774;8.732;2022-11-27T03:32:27;20.90;99.90
8002;DHT22;4046;48.774;8.732;2022-11-27T03:34:56;20.80;99.90
8002;DHT22;4046;48.774;8.732;2022-11-27T03:37:23;20.80;99.90
8002;DHT22;4046;48.774;8.732;2022-11-27T03:39:50;20.80;99.90
8002;DHT22;4046;48.774;8.732;2022-11-27T03:45:11;20.80;99.90
8002;DHT22;4046;48.774;8.732;2022-11-27T03:58:37;20.80;99.90
8002;DHT22;4046;48.774;8.732;2022-11-27T04:01:07;20.80;99.90
8002;DHT22;4046;48.774;8.732;2022-11-27T04:03:35;20.80;99.90
8002;DHT22;4046;48.774;8.732;2022-11-27T04:06:02;20.90;99.90
8002;DHT22;4046;48.774;8.732;2022-11-27T04:08:28;20.80;99.90
8002;DHT22;4046;48.774;8.732;2022-11-27T04:10:54;20.80;99.90
8002;DHT22;4046;48.774;8.732;2022-11-27T04:13:21;20.80;99.90
8002;DHT22;4046;48.774;8.732;2022-11-27T04:15:47;20.80;99.90
8002;DHT22;4046;48.774;8.732;2022-11-27T04:18:13;20.80;99.90
8002;DHT22;4046;48.774;8.732;2022-11-27T04:20:39;20.80;99.90
8002;DHT22;4046;48.774;8.732;2022-11-27T04:23:05;20.80;99.90
8002;DHT22;4046;48.774;8.732;2022-11-27T04:25:32;20.80;99.90
8002;DHT22;4046;48.774;8.732;2022-11-27T04:27:58;20.80;99.90
8002;DHT22;4046;48.774;8.732;2022-11-27T04:30:24;20.80;99.90
8002;DHT22;4046;48.774;8.732;2022-11-27T04:32:50;20.80;99.90
8002;DHT22;4046;48.774;8.732;2022-11-27T04:35:16;20.80;99.90
8002;DHT22;4046;48.774;8.732;2022-11-27T04:37:43;20.80;99.90
8002;DHT22;4046;48.774;8.732;2022-11-27T04:40:09;20.80;99.90
8002;DHT22;4046;48.774;8.732;2022-11-27T04:42:35;20.80;99.90
8002;DHT22;4046;48.774;8.732;2022-11-27T04:45:02;20.80;99.90
8002;DHT22;4046;48.774;8.732;2022-11-27T04:47:28;20.80;99.90
8002;DHT22;4046;48.774;8.732;2022-11-27T04:49:55;20.80;99.90
8002;DHT22;4046;48.774;8.732;2022-11-27T04:52:21;20.80;99.90
8002;DHT22;4046;48.774;8.732;2022-11-27T04:54:47;20.80;99.90
8002;DHT22;4046;48.774;8.732;2022-11-27T04:57:13;20.80;99.90
8002;DHT22;4046;48.774;8.732;2022-11-27T04:59:39;20.80;99.90
8002;DHT22;4046;48.774;8.732;2022-11-27T05:02:06;20.80;99.90
8002;DHT22;4046;48.774;8.732;2022-11-27T05:04:32;20.80;99.90
8002;DHT22;4046;48.774;8.732;2022-11-27T05:06:58;20.80;99.90
8002;DHT22;4046;48.774;8.732;2022-11-27T05:09:24;20.80;99.90
8002;DHT22;4046;48.774;8.732;2022-11-27T05:11:50;20.80;99.90
8002;DHT22;4046;48.774;8.732;2022-11-27T05:14:16;20.80;99.90
8002;DHT22;4046;48.774;8.732;2022-11-27T05:16:49;20.80;99.90
8002;DHT22;4046;48.774;8.732;2022-11-27T05:19:17;20.80;99.90
8002;DHT22;4046;48.774;8.732;2022-11-27T05:21:45;20.80;99.90
8002;DHT22;4046;48.774;8.732;2022-11-27T05:24:12;20.80;99.90
8002;DHT22;4046;48.774;8.732;2022-11-27T05:26:39;20.80;99.90
8002;DHT22;4046;48.774;8.732;2022-11-27T05:29:06;20.80;99.90
8002;DHT22;4046;48.774;8.732;2022-11-27T05:31:33;20.80;99.90
8002;DHT22;4046;48.774;8.732;2022-11-27T05:33:59;20.80;99.90
8002;DHT22;4046;48.774;8.732;2022-11-27T05:36:26;20.80;99.90
8002;DHT22;4046;48.774;8.732;2022-11-27T05:38:52;20.80;99.90
8002;DHT22;4046;48.774;8.732;2022-11-27T05:41:18;20.70;99.90
8002;DHT22;4046;48.774;8.732;2022-11-27T05:43:45;20.70;99.90
8002;DHT22;4046;48.774;8.732;2022-11-27T05:46:13;20.70;99.80
8002;DHT22;4046;48.774;8.732;2022-11-27T05:48:40;20.80;99.90
8002;DHT22;4046;48.774;8.732;2022-11-27T05:51:06;20.70;99.80
8002;DHT22;4046;48.774;8.732;2022-11-27T05:53:33;20.70;99.80
8002;DHT22;4046;48.774;8.732;2022-11-27T05:56:04;20.70;99.80
8002;DHT22;4046;48.774;8.732;2022-11-27T05:58:31;20.70;99.80
8002;DHT22;4046;48.774;8.732;2022-11-27T06:00:57;20.70;99.80
8002;DHT22;4046;48.774;8.732;2022-11-27T06:03:24;20.60;99.70
8002;DHT22;4046;48.774;8.732;2022-11-27T06:05:51;20.60;99.70
8002;DHT22;4046;48.774;8.732;2022-11-27T06:08:18;20.60;99.70
8002;DHT22;4046;48.774;8.732;2022-11-27T06:10:45;20.60;99.70
8002;DHT22;4046;48.774;8.732;2022-11-27T06:13:11;20.60;99.70
8002;DHT22;4046;48.774;8.732;2022-11-27T06:15:38;20.60;99.70
8002;DHT22;4046;48.774;8.732;2022-11-27T06:18:05;20.60;99.70
8002;DHT22;4046;48.774;8.732;2022-11-27T06:20:31;20.50;99.70
8002;DHT22;4046;48.774;8.732;2022-11-27T06:22:57;20.50;99.70
8002;DHT22;4046;48.774;8.732;2022-11-27T06:25:24;20.50;99.70
8002;DHT22;4046;48.774;8.732;2022-11-27T06:27:51;20.50;99.70
8002;DHT22;4046;48.774;8.732;2022-11-27T06:30:18;20.50;99.60
8002;DHT22;4046;48.774;8.732;2022-11-27T06:32:44;20.50;99.60
8002;DHT22;4046;48.774;8.732;2022-11-27T06:35:13;20.50;99.60
8002;DHT22;4046;48.774;8.732;2022-11-27T06:37:39;20.50;99.70
8002;DHT22;4046;48.774;8.732;2022-11-27T06:40:06;20.40;99.60
8002;DHT22;4046;48.774;8.732;2022-11-27T06:42:32;20.40;99.60
8002;DHT22;4046;48.774;8.732;2022-11-27T06:44:58;20.40;99.60
8002;DHT22;4046;48.774;8.732;2022-11-27T06:47:25;20.40;99.60
8002;DHT22;4046;48.774;8.732;2022-11-27T06:49:51;20.40;99.60
8002;DHT22;4046;48.774;8.732;2022-11-27T06:52:17;20.40;99.60
8002;DHT22;4046;48.774;8.732;2022-11-27T06:54:43;20.40;99.50
8002;DHT22;4046;48.774;8.732;2022-11-27T06:57:09;20.40;99.50
8002;DHT22;4046;48.774;8.732;2022-11-27T06:59:36;20.40;99.50
8002;DHT22;4046;48.774;8.732;2022-11-27T07:02:02;20.40;99.40
8002;DHT22;4046;48.774;8.732;2022-11-27T07:04:28;20.40;99.40
8002;DHT22;4046;48.774;8.732;2022-11-27T07:06:54;20.40;99.40
8002;DHT22;4046;48.774;8.732;2022-11-27T07:09:20;20.40;99.40
8002;DHT22;4046;48.774;8.732;2022-11-27T07:11:47;20.40;99.40
8002;DHT22;4046;48.774;8.732;2022-11-27T07:14:13;20.30;99.30
8002;DHT22;4046;48.774;8.732;2022-11-27T07:16:39;20.30;99.30
8002;DHT22;4046;48.774;8.732;2022-11-27T07:19:06;20.40;99.30
8002;DHT22;4046;48.774;8.732;2022-11-27T07:21:34;20.40;99.20
8002;DHT22;4046;48.774;8.732;2022-11-27T07:24:00;20.30;99.20
8002;DHT22;4046;48.774;8.732;2022-11-27T07:26:28;20.30;99.10
8002;DHT22;4046;48.774;8.732;2022-11-27T07:28:55;20.30;99.10
8002;DHT22;4046;48.774;8.732;2022-11-27T07:31:23;20.30;99.10
8002;DHT22;4046;48.774;8.732;2022-11-27T07:33:51;20.30;99.10
8002;DHT22;4046;48.774;8.732;2022-11-27T07:36:28;20.30;99.10
8002;DHT22;4046;48.774;8.732;2022-11-27T07:38:55;20.30;99.00
8002;DHT22;4046;48.774;8.732;2022-11-27T07:41:23;20.30;99.00
8002;DHT22;4046;48.774;8.732;2022-11-27T07:43:49;20.30;99.00
8002;DHT22;4046;48.774;8.732;2022-11-27T07:46:20;20.40;99.00
8002;DHT22;4046;48.774;8.732;2022-11-27T07:48:47;20.30;98.90
8002;DHT22;4046;48.774;8.732;2022-11-27T07:51:16;20.30;98.90
8002;DHT22;4046;48.774;8.732;2022-11-27T07:53:43;20.30;98.90
8002;DHT22;4046;48.774;8.732;2022-11-27T07:56:11;20.30;98.90
8002;DHT22;4046;48.774;8.732;2022-11-27T07:58:38;20.30;98.90
8002;DHT22;4046;48.774;8.732;2022-11-27T08:01:06;20.30;98.90
8002;DHT22;4046;48.774;8.732;2022-11-27T08:03:33;20.30;98.90
8002;DHT22;4046;48.774;8.732;2022-11-27T08:05:59;20.40;98.90
8002;DHT22;4046;48.774;8.732;2022-11-27T08:08:25;20.40;98.90
8002;DHT22;4046;48.774;8.732;2022-11-27T08:10:51;20.40;98.90
8002;DHT22;4046;48.774;8.732;2022-11-27T08:13:18;20.40;98.80
8002;DHT22;4046;48.774;8.732;2022-11-27T08:15:44;20.40;98.80
8002;DHT22;4046;48.774;8.732;2022-11-27T08:18:11;20.40;98.90
8002;DHT22;4046;48.774;8.732;2022-11-27T08:20:37;20.40;98.80
8002;DHT22;4046;48.774;8.732;2022-11-27T08:23:04;20.50;98.90
8002;DHT22;4046;48.774;8.732;2022-11-27T08:25:30;20.50;98.90
8002;DHT22;4046;48.774;8.732;2022-11-27T08:27:56;20.50;98.80
8002;DHT22;4046;48.774;8.732;2022-11-27T08:30:23;20.50;98.80
8002;DHT22;4046;48.774;8.732;2022-11-27T08:32:49;20.50;98.80
8002;DHT22;4046;48.774;8.732;2022-11-27T08:35:15;20.60;98.90
8002;DHT22;4046;48.774;8.732;2022-11-27T08:37:42;20.60;98.90
8002;DHT22;4046;48.774;8.732;2022-11-27T08:40:08;20.60;98.90
8002;DHT22;4046;48.774;8.732;2022-11-27T08:42:34;20.60;98.80
8002;DHT22;4046;48.774;8.732;2022-11-27T08:45:01;20.60;98.80
8002;DHT22;4046;48.774;8.732;2022-11-27T08:47:27;20.60;98.80
8002;DHT22;4046;48.774;8.732;2022-11-27T08:49:53;20.70;98.80
8002;DHT22;4046;48.774;8.732;2022-11-27T08:52:19;20.70;98.80
8002;DHT22;4046;48.774;8.732;2022-11-27T08:54:46;20.70;98.70
8002;DHT22;4046;48.774;8.732;2022-11-27T08:57:12;20.70;98.70
8002;DHT22;4046;48.774;8.732;2022-11-27T08:59:39;20.80;98.70
8002;DHT22;4046;48.774;8.732;2022-11-27T09:02:05;20.80;98.60
8002;DHT22;4046;48.774;8.732;2022-11-27T09:04:31;20.80;98.60
8002;DHT22;4046;48.774;8.732;2022-11-27T09:06:57;20.80;98.60
8002;DHT22;4046;48.774;8.732;2022-11-27T09:09:23;20.80;98.50
8002;DHT22;4046;48.774;8.732;2022-11-27T09:11:50;20.90;98.50
8002;DHT22;4046;48.774;8.732;2022-11-27T09:14:16;20.90;98.50
8002;DHT22;4046;48.774;8.732;2022-11-27T09:16:42;21.10;98.40
8002;DHT22;4046;48.774;8.732;2022-11-27T09:19:08;21.40;98.20
8002;DHT22;4046;48.774;8.732;2022-11-27T09:21:34;21.90;98.10
8002;DHT22;4046;48.774;8.732;2022-11-27T09:24:01;23.20;97.80
8002;DHT22;4046;48.774;8.732;2022-11-27T09:26:28;24.30;97.40
8002;DHT22;4046;48.774;8.732;2022-11-27T09:28:56;24.90;96.90
8002;DHT22;4046;48.774;8.732;2022-11-27T09:31:23;25.20;96.50
8002;DHT22;4046;48.774;8.732;2022-11-27T09:33:50;24.80;96.40
8002;DHT22;4046;48.774;8.732;2022-11-27T09:36:22;24.70;96.40
8002;DHT22;4046;48.774;8.732;2022-11-27T09:38:49;24.70;96.40
8002;DHT22;4046;48.774;8.732;2022-11-27T09:41:25;25.30;96.70
8002;DHT22;4046;48.774;8.732;2022-11-27T09:43:59;26.10;96.00
8002;DHT22;4046;48.774;8.732;2022-11-27T09:46:30;26.80;95.60
8002;DHT22;4046;48.774;8.732;2022-11-27T09:49:00;26.40;95.00
8002;DHT22;4046;48.774;8.732;2022-11-27T09:51:36;25.20;95.20
8002;DHT22;4046;48.774;8.732;2022-11-27T09:54:27;24.20;95.60
8002;DHT22;4046;48.774;8.732;2022-11-27T09:56:56;23.50;96.10
8002;DHT22;4046;48.774;8.732;2022-11-27T09:59:49;23.00;96.40
8002;DHT22;4046;48.774;8.732;2022-11-27T10:02:29;22.70;96.70
8002;DHT22;4046;48.774;8.732;2022-11-27T10:04:57;22.40;97.00
8002;DHT22;4046;48.774;8.732;2022-11-27T10:07:32;22.60;97.30
8002;DHT22;4046;48.774;8.732;2022-11-27T10:10:11;22.40;97.20
8002;DHT22;4046;48.774;8.732;2022-11-27T10:21:14;22.70;97.20
8002;DHT22;4046;48.774;8.732;2022-11-27T10:24:28;23.40;97.20
8002;DHT22;4046;48.774;8.732;2022-11-27T10:26:57;24.00;97.00
8002;DHT22;4046;48.774;8.732;2022-11-27T10:32:16;24.30;96.80
8002;DHT22;4046;48.774;8.732;2022-11-27T10:34:51;24.40;96.70
8002;DHT22;4046;48.774;8.732;2022-11-27T10:37:29;24.40;96.80
8002;DHT22;4046;48.774;8.732;2022-11-27T10:40:06;24.90;96.60
8002;DHT22;4046;48.774;8.732;2022-11-27T10:43:02;25.20;96.20
8002;DHT22;4046;48.774;8.732;2022-11-27T10:45:49;25.80;96.20
8002;DHT22;4046;48.774;8.732;2022-11-27T10:48:16;26.30;95.80
8002;DHT22;4046;48.774;8.732;2022-11-27T10:50:43;26.00;95.50
8002;DHT22;4046;48.774;8.732;2022-11-27T10:58:50;24.40;96.10
8002;DHT22;4046;48.774;8.732;2022-11-27T11:01:09;24.00;96.30
8002;DHT22;4046;48.774;8.732;2022-11-27T11:03:36;23.70;96.50
8002;DHT22;4046;48.774;8.732;2022-11-27T11:06:18;23.40;96.70
8002;DHT22;4046;48.774;8.732;2022-11-27T11:08:45;23.10;96.90
8002;DHT22;4046;48.774;8.732;2022-11-27T11:11:11;23.00;97.10
8002;DHT22;4046;48.774;8.732;2022-11-27T11:18:44;23.90;97.20
8002;DHT22;4046;48.774;8.732;2022-11-27T11:21:32;25.10;97.00
8002;DHT22;4046;48.774;8.732;2022-11-27T11:24:33;25.70;96.30
8002;DHT22;4046;48.774;8.732;2022-11-27T11:27:05;25.30;96.10
8002;DHT22;4046;48.774;8.732;2022-11-27T11:30:00;24.90;96.30
8002;DHT22;4046;48.774;8.732;2022-11-27T11:32:36;25.60;96.30
8002;DHT22;4046;48.774;8.732;2022-11-27T11:37:53;24.50;96.40
8002;DHT22;4046;48.774;8.732;2022-11-27T11:40:23;24.20;96.60
8002;DHT22;4046;48.774;8.732;2022-11-27T11:43:03;23.90;96.80
8002;DHT22;4046;48.774;8.732;2022-11-27T11:45:31;23.70;97.00
8002;DHT22;4046;48.774;8.732;2022-11-27T11:48:25;23.50;97.10
8002;DHT22;4046;48.774;8.732;2022-11-27T11:51:00;23.40;97.20
8002;DHT22;4046;48.774;8.732;2022-11-27T11:56:13;23.20;97.50
8002;DHT22;4046;48.774;8.732;2022-11-27T12:07:28;22.80;97.80
8002;DHT22;4046;48.774;8.732;2022-11-27T12:12:53;23.00;97.90
8002;DHT22;4046;48.774;8.732;2022-11-27T12:15:34;23.30;97.70
8002;DHT22;4046;48.774;8.732;2022-11-27T12:23:40;23.50;97.60
8002;DHT22;4046;48.774;8.732;2022-11-27T12:26:25;23.40;97.70
8002;DHT22;4046;48.774;8.732;2022-11-27T12:40:30;22.90;98.00
8002;DHT22;4046;48.774;8.732;2022-11-27T12:43:24;22.90;98.10
8002;DHT22;4046;48.774;8.732;2022-11-27T12:46:17;22.80;98.10
8002;DHT22;4046;48.774;8.732;2022-11-27T12:52:22;22.60;98.20
8002;DHT22;4046;48.774;8.732;2022-11-27T12:55:05;22.60;98.30
8002;DHT22;4046;48.774;8.732;2022-11-27T12:57:39;22.60;98.40
8002;DHT22;4046;48.774;8.732;2022-11-27T13:00:17;22.50;98.40
8002;DHT22;4046;48.774;8.732;2022-11-27T13:03:06;22.50;98.40
8002;DHT22;4046;48.774;8.732;2022-11-27T13:08:22;22.40;98.50
8002;DHT22;4046;48.774;8.732;2022-11-27T13:10:54;22.40;98.50
8002;DHT22;4046;48.774;8.732;2022-11-27T13:13:36;22.40;98.50
8002;DHT22;4046;48.774;8.732;2022-11-27T13:16:18;22.40;98.60
8002;DHT22;4046;48.774;8.732;2022-11-27T13:21:37;22.40;98.60
8002;DHT22;4046;48.774;8.732;2022-11-27T13:24:05;22.40;98.70
8002;DHT22;4046;48.774;8.732;2022-11-27T13:27:23;22.40;98.70
8002;DHT22;4046;48.774;8.732;2022-11-27T13:32:05;22.40;98.80
8002;DHT22;4046;48.774;8.732;2022-11-27T13:34:35;22.30;98.70
8002;DHT22;4046;48.774;8.732;2022-11-27T13:37:07;22.30;98.80
8002;DHT22;4046;48.774;8.732;2022-11-27T13:39:36;22.30;98.90
8002;DHT22;4046;48.774;8.732;2022-11-27T13:44:32;22.40;99.00
8002;DHT22;4046;48.774;8.732;2022-11-27T13:47:14;22.40;99.00
8002;DHT22;4046;48.774;8.732;2022-11-27T13:49:42;22.40;99.00
8002;DHT22;4046;48.774;8.732;2022-11-27T13:52:15;22.50;99.00
8002;DHT22;4046;48.774;8.732;2022-11-27T13:55:11;22.50;99.10
8002;DHT22;4046;48.774;8.732;2022-11-27T13:57:54;22.50;99.10
8002;DHT22;4046;48.774;8.732;2022-11-27T14:02:58;22.60;99.20
8002;DHT22;4046;48.774;8.732;2022-11-27T14:05:39;22.60;99.20
8002;DHT22;4046;48.774;8.732;2022-11-27T14:08:18;22.60;99.20
8002;DHT22;4046;48.774;8.732;2022-11-27T14:10:56;22.60;99.20
8002;DHT22;4046;48.774;8.732;2022-11-27T14:13:41;22.60;99.20
8002;DHT22;4046;48.774;8.732;2022-11-27T14:16:37;22.70;99.20
8002;DHT22;4046;48.774;8.732;2022-11-27T14:19:21;22.70;99.30
8002;DHT22;4046;48.774;8.732;2022-11-27T14:21:48;22.70;99.30
8002;DHT22;4046;48.774;8.732;2022-11-27T14:24:25;22.70;99.30
8002;DHT22;4046;48.774;8.732;2022-11-27T14:26:53;22.70;99.30
8002;DHT22;4046;48.774;8.732;2022-11-27T14:29:20;22.70;99.30
8002;DHT22;4046;48.774;8.732;2022-11-27T14:31:58;22.70;99.30
8002;DHT22;4046;48.774;8.732;2022-11-27T14:34:30;22.80;99.40
8002;DHT22;4046;48.774;8.732;2022-11-27T14:36:57;22.70;99.30
8002;DHT22;4046;48.774;8.732;2022-11-27T14:39:24;22.70;99.40
8002;DHT22;4046;48.774;8.732;2022-11-27T14:41:56;22.70;99.40
8002;DHT22;4046;48.774;8.732;2022-11-27T14:44:23;22.70;99.40
8002;DHT22;4046;48.774;8.732;2022-11-27T14:46:50;22.70;99.70
8002;DHT22;4046;48.774;8.732;2022-11-27T14:49:22;22.80;99.50
8002;DHT22;4046;48.774;8.732;2022-11-27T14:51:49;22.80;99.40
8002;DHT22;4046;48.774;8.732;2022-11-27T14:54:31;22.80;99.50
8002;DHT22;4046;48.774;8.732;2022-11-27T14:56:58;22.70;99.40
8002;DHT22;4046;48.774;8.732;2022-11-27T14:59:24;22.70;99.50
8002;DHT22;4046;48.774;8.732;2022-11-27T15:02:17;22.80;99.50
8002;DHT22;4046;48.774;8.732;2022-11-27T15:04:45;22.80;99.50
8002;DHT22;4046;48.774;8.732;2022-11-27T15:09:50;22.80;99.60
8002;DHT22;4046;48.774;8.732;2022-11-27T15:14:53;22.70;99.60
8002;DHT22;4046;48.774;8.732;2022-11-27T15:17:25;22.70;99.60
8002;DHT22;4046;48.774;8.732;2022-11-27T15:19:52;22.70;99.60
8002;DHT22;4046;48.774;8.732;2022-11-27T15:22:19;22.70;99.60
8002;DHT22;4046;48.774;8.732;2022-11-27T15:25:00;22.70;99.70
8002;DHT22;4046;48.774;8.732;2022-11-27T15:27:29;22.70;99.70
8002;DHT22;4046;48.774;8.732;2022-11-27T15:30:11;22.70;99.70
8002;DHT22;4046;48.774;8.732;2022-11-27T15:32:49;22.70;99.70
8002;DHT22;4046;48.774;8.732;2022-11-27T15:35:34;22.70;99.70
8002;DHT22;4046;48.774;8.732;2022-11-27T15:38:08;22.70;99.70
8002;DHT22;4046;48.774;8.732;2022-11-27T15:40:39;22.70;99.70
8002;DHT22;4046;48.774;8.732;2022-11-27T15:43:14;22.70;99.70
8002;DHT22;4046;48.774;8.732;2022-11-27T15:45:42;22.70;99.70
8002;DHT22;4046;48.774;8.732;2022-11-27T15:48:17;22.70;99.70
8002;DHT22;4046;48.774;8.732;2022-11-27T15:50:44;22.70;99.70
8002;DHT22;4046;48.774;8.732;2022-11-27T15:53:10;22.70;99.70
8002;DHT22;4046;48.774;8.732;2022-11-27T15:55:36;22.70;99.80
8002;DHT22;4046;48.774;8.732;2022-11-27T15:58:02;22.70;99.80
8002;DHT22;4046;48.774;8.732;2022-11-27T16:00:29;22.70;99.80
8002;DHT22;4046;48.774;8.732;2022-11-27T16:02:55;22.70;99.80
8002;DHT22;4046;48.774;8.732;2022-11-27T16:05:21;22.70;99.80
8002;DHT22;4046;48.774;8.732;2022-11-27T16:07:47;22.80;99.80
8002;DHT22;4046;48.774;8.732;2022-11-27T16:10:14;22.80;99.80
8002;DHT22;4046;48.774;8.732;2022-11-27T16:12:40;22.70;99.80
8002;DHT22;4046;48.774;8.732;2022-11-27T16:15:07;22.80;99.80
8002;DHT22;4046;48.774;8.732;2022-11-27T16:17:34;22.80;99.90
8002;DHT22;4046;48.774;8.732;2022-11-27T16:20:00;22.70;99.80
8002;DHT22;4046;48.774;8.732;2022-11-27T16:22:26;22.80;99.90
8002;DHT22;4046;48.774;8.732;2022-11-27T16:24:52;22.80;99.90
8002;DHT22;4046;48.774;8.732;2022-11-27T16:27:18;22.70;99.90
8002;DHT22;4046;48.774;8.732;2022-11-27T16:29:45;22.70;99.90
8002;DHT22;4046;48.774;8.732;2022-11-27T16:32:11;22.80;99.90
8002;DHT22;4046;48.774;8.732;2022-11-27T16:34:37;22.80;99.90
8002;DHT22;4046;48.774;8.732;2022-11-27T16:37:03;22.80;99.90
8002;DHT22;4046;48.774;8.732;2022-11-27T16:39:30;22.70;99.90
8002;DHT22;4046;48.774;8.732;2022-11-27T16:41:56;22.70;99.90
8002;DHT22;4046;48.774;8.732;2022-11-27T16:44:22;22.70;99.90
8002;DHT22;4046;48.774;8.732;2022-11-27T16:46:49;22.80;99.90
8002;DHT22;4046;48.774;8.732;2022-11-27T16:49:15;22.80;99.90
8002;DHT22;4046;48.774;8.732;2022-11-27T16:51:42;22.80;99.90
8002;DHT22;4046;48.774;8.732;2022-11-27T16:54:10;22.80;99.90
8002;DHT22;4046;48.774;8.732;2022-11-27T16:56:37;22.80;99.90
8002;DHT22;4046;48.774;8.732;2022-11-27T16:59:08;22.80;99.90
8002;DHT22;4046;48.774;8.732;2022-11-27T17:01:35;22.80;99.90
8002;DHT22;4046;48.774;8.732;2022-11-27T17:04:03;22.80;99.90
8002;DHT22;4046;48.774;8.732;2022-11-27T17:06:32;22.80;99.90
8002;DHT22;4046;48.774;8.732;2022-11-27T17:09:00;22.80;99.90
8002;DHT22;4046;48.774;8.732;2022-11-27T17:11:29;22.80;99.90
8002;DHT22;4046;48.774;8.732;2022-11-27T17:13:59;22.80;99.90
8002;DHT22;4046;48.774;8.732;2022-11-27T17:16:26;22.80;99.90
8002;DHT22;4046;48.774;8.732;2022-11-27T17:18:52;22.80;99.90
8002;DHT22;4046;48.774;8.732;2022-11-27T17:21:31;22.80;99.90
8002;DHT22;4046;48.774;8.732;2022-11-27T17:24:06;22.80;99.90
8002;DHT22;4046;48.774;8.732;2022-11-27T17:26:33;22.80;99.90
8002;DHT22;4046;48.774;8.732;2022-11-27T17:29:00;22.80;99.90
8002;DHT22;4046;48.774;8.732;2022-11-27T17:31:29;22.80;99.90
8002;DHT22;4046;48.774;8.732;2022-11-27T17:33:59;22.80;99.90
8002;DHT22;4046;48.774;8.732;2022-11-27T17:36:25;22.80;99.90
8002;DHT22;4046;48.774;8.732;2022-11-27T17:38:52;22.80;99.90
8002;DHT22;4046;48.774;8.732;2022-11-27T17:41:19;22.80;99.90
8002;DHT22;4046;48.774;8.732;2022-11-27T17:43:46;22.80;99.90
8002;DHT22;4046;48.774;8.732;2022-11-27T17:46:16;22.80;99.90
8002;DHT22;4046;48.774;8.732;2022-11-27T17:48:43;22.80;99.90
8002;DHT22;4046;48.774;8.732;2022-11-27T17:51:09;22.90;99.90
8002;DHT22;4046;48.774;8.732;2022-11-27T17:53:36;22.80;99.90
8002;DHT22;4046;48.774;8.732;2022-11-27T17:56:08;22.90;99.90
8002;DHT22;4046;48.774;8.732;2022-11-27T17:58:34;22.80;99.90
8002;DHT22;4046;48.774;8.732;2022-11-27T18:01:02;22.80;99.90
8002;DHT22;4046;48.774;8.732;2022-11-27T18:03:30;22.80;99.90
8002;DHT22;4046;48.774;8.732;2022-11-27T18:05:56;22.80;99.90
8002;DHT22;4046;48.774;8.732;2022-11-27T18:08:26;22.80;99.90
8002;DHT22;4046;48.774;8.732;2022-11-27T18:10:52;22.80;99.90